sensor_id;sensor_type;location;lat;lon;timestamp;pressure;altitude;pressure_sealevel;temperature;humidity
12536;BME280;6334;48.696;2.114;2023-04-27T00:00:20;100066.65;;;12.40;68.89
12536;BME280;6334;48.696;2.114;2023-04-27T00:02:52;100066.12;;;12.37;70.06
12536;BME280;6334;48.696;2.114;2023-04-27T00:05:23;100059.12;;;12.44;70.15
12536;BME280;6334;48.696;2.114;2023-04-27T00:07:54;100056.81;;;12.31;69.20
12536;BME280;6334;48.696;2.114;2023-04-27T00:10:25;100052.91;;;12.39;69.02
12536;BME280;6334;48.696;2.114;2023-04-27T00:12:57;100052.82;;;12.38;69.47
12536;BME280;6334;48.696;2.114;2023-04-27T00:15:26;100054.28;;;12.04;71.63
12536;BME280;6334;48.696;2.114;2023-04-27T00:18:00;100053.53;;;12.18;70.99
12536;BME280;6334;48.696;2.114;2023-04-27T00:20:32;100049.17;;;12.30;70.53
12536;BME280;6334;48.696;2.114;2023-04-27T00:23:04;100045.14;;;12.25;69.52
12536;BME280;6334;48.696;2.114;2023-04-27T00:25:34;100047.65;;;12.22;70.28
12536;BME280;6334;48.696;2.114;2023-04-27T00:28:05;100038.48;;;12.15;70.50
12536;BME280;6334;48.696;2.114;2023-04-27T00:30:36;100043.38;;;12.12;71.81
12536;BME280;6334;48.696;2.114;2023-04-27T00:33:06;100037.86;;;11.73;72.61
12536;BME280;6334;48.696;2.114;2023-04-27T00:35:37;100039.89;;;11.94;72.19
12536;BME280;6334;48.696;2.114;2023-04-27T00:38:07;100034.16;;;11.85;72.37
12536;BME280;6334;48.696;2.114;2023-04-27T00:40:39;100041.08;;;12.01;70.59
12536;BME280;6334;48.696;2.114;2023-04-27T00:43:10;100040.50;;;11.85;71.17
12536;BME280;6334;48.696;2.114;2023-04-27T00:45:40;100042.52;;;12.09;70.53
12536;BME280;6334;48.696;2.114;2023-04-27T00:48:11;100039.44;;;12.05;70.78
12536;BME280;6334;48.696;2.114;2023-04-27T00:50:41;100037.22;;;11.94;71.01
12536;BME280;6334;48.696;2.114;2023-04-27T00:53:11;100038.09;;;11.92;71.42
12536;BME280;6334;48.696;2.114;2023-04-27T00:55:42;100035.55;;;11.83;72.27
12536;BME280;6334;48.696;2.114;2023-04-27T00:58:13;100034.50;;;11.85;71.63
12536;BME280;6334;48.696;2.114;2023-04-27T01:00:43;100036.75;;;11.85;71.74
12536;BME280;6334;48.696;2.114;2023-04-27T01:03:14;100035.02;;;11.85;71.54
12536;BME280;6334;48.696;2.114;2023-04-27T01:05:44;100035.77;;;11.90;71.76
12536;BME280;6334;48.696;2.114;2023-04-27T01:08:14;100039.20;;;11.89;71.21
12536;BME280;6334;48.696;2.114;2023-04-27T01:10:45;100035.26;;;11.75;70.96
12536;BME280;6334;48.696;2.114;2023-04-27T01:15:51;100039.02;;;11.79;70.79
12536;BME280;6334;48.696;2.114;2023-04-27T01:18:21;100039.80;;;11.82;70.77
12536;BME280;6334;48.696;2.114;2023-04-27T01:20:52;100041.69;;;11.75;71.12
12536;BME280;6334;48.696;2.114;2023-04-27T01:23:22;100036.73;;;11.61;71.77
12536;BME280;6334;48.696;2.114;2023-04-27T01:25:53;100040.97;;;11.58;71.69
12536;BME280;6334;48.696;2.114;2023-04-27T01:28:24;100039.22;;;11.77;71.66
12536;BME280;6334;48.696;2.114;2023-04-27T01:30:55;100036.11;;;11.57;71.42
12536;BME280;6334;48.696;2.114;2023-04-27T01:33:26;100029.08;;;11.71;71.72
12536;BME280;6334;48.696;2.114;2023-04-27T01:35:57;100026.30;;;11.47;71.60
12536;BME280;6334;48.696;2.114;2023-04-27T01:38:27;100024.75;;;11.54;71.58
12536;BME280;6334;48.696;2.114;2023-04-27T01:40:58;100021.63;;;11.53;72.59
12536;BME280;6334;48.696;2.114;2023-04-27T01:43:28;100016.00;;;10.95;75.40
12536;BME280;6334;48.696;2.114;2023-04-27T01:46:07;100016.96;;;10.71;76.27
12536;BME280;6334;48.696;2.114;2023-04-27T01:48:34;100013.58;;;11.45;71.97
12536;BME280;6334;48.696;2.114;2023-04-27T01:51:03;100015.54;;;11.41;71.81
12536;BME280;6334;48.696;2.114;2023-04-27T01:53:33;100014.83;;;11.33;71.25
12536;BME280;6334;48.696;2.114;2023-04-27T01:56:04;100010.09;;;11.34;71.97
12536;BME280;6334;48.696;2.114;2023-04-27T01:58:35;100013.55;;;11.32;71.72
12536;BME280;6334;48.696;2.114;2023-04-27T02:01:05;100006.93;;;11.44;71.88
12536;BME280;6334;48.696;2.114;2023-04-27T02:03:35;100002.93;;;11.44;72.82
12536;BME280;6334;48.696;2.114;2023-04-27T02:06:06;100007.82;;;10.94;75.47
12536;BME280;6334;48.696;2.114;2023-04-27T02:08:35;100001.73;;;11.25;72.39
12536;BME280;6334;48.696;2.114;2023-04-27T02:11:07;99996.32;;;11.35;72.85
12536;BME280;6334;48.696;2.114;2023-04-27T02:13:36;99994.34;;;11.12;74.72
12536;BME280;6334;48.696;2.114;2023-04-27T02:16:07;99993.97;;;11.15;72.91
12536;BME280;6334;48.696;2.114;2023-04-27T02:18:38;100000.44;;;11.23;73.02
12536;BME280;6334;48.696;2.114;2023-04-27T02:21:10;99998.50;;;11.13;72.97
12536;BME280;6334;48.696;2.114;2023-04-27T02:23:41;99999.22;;;11.09;73.04
12536;BME280;6334;48.696;2.114;2023-04-27T02:26:17;100003.88;;;11.20;72.52
12536;BME280;6334;48.696;2.114;2023-04-27T02:28:46;100004.97;;;11.24;72.06
12536;BME280;6334;48.696;2.114;2023-04-27T02:31:17;99998.02;;;11.12;73.77
12536;BME280;6334;48.696;2.114;2023-04-27T02:33:47;100001.48;;;11.24;72.67
12536;BME280;6334;48.696;2.114;2023-04-27T02:36:17;100002.13;;;11.27;72.45
12536;BME280;6334;48.696;2.114;2023-04-27T02:38:47;100001.23;;;11.02;74.44
12536;BME280;6334;48.696;2.114;2023-04-27T02:41:19;100006.27;;;11.16;72.89
12536;BME280;6334;48.696;2.114;2023-04-27T02:46:26;100005.48;;;11.25;73.49
12536;BME280;6334;48.696;2.114;2023-04-27T02:48:57;100003.45;;;11.14;73.23
12536;BME280;6334;48.696;2.114;2023-04-27T02:51:28;100009.27;;;11.16;73.18
12536;BME280;6334;48.696;2.114;2023-04-27T02:53:59;100016.06;;;11.24;73.59
12536;BME280;6334;48.696;2.114;2023-04-27T02:56:30;100021.64;;;11.29;72.72
12536;BME280;6334;48.696;2.114;2023-04-27T02:59:01;100021.53;;;11.21;72.74
12536;BME280;6334;48.696;2.114;2023-04-27T03:01:32;100024.03;;;11.15;73.65
12536;BME280;6334;48.696;2.114;2023-04-27T03:04:02;100027.91;;;11.23;73.38
12536;BME280;6334;48.696;2.114;2023-04-27T03:06:32;100026.95;;;11.31;73.23
12536;BME280;6334;48.696;2.114;2023-04-27T03:09:02;100023.23;;;11.50;72.60
12536;BME280;6334;48.696;2.114;2023-04-27T03:11:33;100025.10;;;11.04;75.18
12536;BME280;6334;48.696;2.114;2023-04-27T03:14:03;100019.30;;;10.65;77.39
12536;BME280;6334;48.696;2.114;2023-04-27T03:16:33;100022.95;;;11.14;75.06
12536;BME280;6334;48.696;2.114;2023-04-27T03:19:03;100022.24;;;11.29;73.38
12536;BME280;6334;48.696;2.114;2023-04-27T03:21:34;100016.01;;;11.34;73.71
12536;BME280;6334;48.696;2.114;2023-04-27T03:24:03;100011.52;;;11.11;75.02
12536;BME280;6334;48.696;2.114;2023-04-27T03:26:37;100010.47;;;11.02;73.75
12536;BME280;6334;48.696;2.114;2023-04-27T03:29:10;100011.39;;;11.02;74.57
12536;BME280;6334;48.696;2.114;2023-04-27T03:31:40;100009.38;;;11.09;73.78
12536;BME280;6334;48.696;2.114;2023-04-27T03:34:10;100012.83;;;11.05;74.13
12536;BME280;6334;48.696;2.114;2023-04-27T03:36:41;100012.45;;;11.03;73.19
12536;BME280;6334;48.696;2.114;2023-04-27T03:39:11;100009.75;;;11.17;73.78
12536;BME280;6334;48.696;2.114;2023-04-27T03:41:42;100011.77;;;11.32;72.57
12536;BME280;6334;48.696;2.114;2023-04-27T03:44:13;100012.99;;;11.18;73.92
12536;BME280;6334;48.696;2.114;2023-04-27T03:46:43;100008.06;;;11.02;73.89
12536;BME280;6334;48.696;2.114;2023-04-27T03:49:14;100014.64;;;11.02;73.17
12536;BME280;6334;48.696;2.114;2023-04-27T03:51:45;100011.50;;;10.89;73.13
12536;BME280;6334;48.696;2.114;2023-04-27T03:54:14;100015.47;;;11.08;73.27
12536;BME280;6334;48.696;2.114;2023-04-27T03:56:45;100012.42;;;11.12;72.86
12536;BME280;6334;48.696;2.114;2023-04-27T03:59:16;100010.86;;;11.27;72.39
12536;BME280;6334;48.696;2.114;2023-04-27T04:01:46;100010.88;;;10.96;72.32
12536;BME280;6334;48.696;2.114;2023-04-27T04:04:16;100012.09;;;11.28;71.76
12536;BME280;6334;48.696;2.114;2023-04-27T04:06:47;100010.50;;;11.33;71.18
12536;BME280;6334;48.696;2.114;2023-04-27T04:09:17;100012.30;;;11.31;71.66
12536;BME280;6334;48.696;2.114;2023-04-27T04:11:48;100012.45;;;11.42;71.59
12536;BME280;6334;48.696;2.114;2023-04-27T04:14:19;100019.38;;;11.21;71.69
12536;BME280;6334;48.696;2.114;2023-04-27T04:16:51;100027.77;;;11.15;72.41
12536;BME280;6334;48.696;2.114;2023-04-27T04:19:21;100031.20;;;11.21;71.76
12536;BME280;6334;48.696;2.114;2023-04-27T04:21:52;100031.34;;;11.28;72.19
12536;BME280;6334;48.696;2.114;2023-04-27T04:24:22;100030.28;;;11.20;72.70
12536;BME280;6334;48.696;2.114;2023-04-27T04:26:53;100034.23;;;11.16;72.61
12536;BME280;6334;48.696;2.114;2023-04-27T04:29:23;100028.91;;;11.06;73.04
12536;BME280;6334;48.696;2.114;2023-04-27T04:31:54;100022.95;;;11.21;72.49
12536;BME280;6334;48.696;2.114;2023-04-27T04:34:24;100025.62;;;11.24;72.62
12536;BME280;6334;48.696;2.114;2023-04-27T04:36:54;100022.94;;;11.10;73.72
12536;BME280;6334;48.696;2.114;2023-04-27T04:39:23;100022.84;;;11.23;72.48
12536;BME280;6334;48.696;2.114;2023-04-27T04:41:55;100018.59;;;11.05;72.87
12536;BME280;6334;48.696;2.114;2023-04-27T04:44:26;100016.16;;;11.06;72.19
12536;BME280;6334;48.696;2.114;2023-04-27T04:46:56;100015.04;;;10.98;72.71
12536;BME280;6334;48.696;2.114;2023-04-27T04:49:25;100015.68;;;10.93;72.56
12536;BME280;6334;48.696;2.114;2023-04-27T04:51:56;100008.30;;;10.97;71.73
12536;BME280;6334;48.696;2.114;2023-04-27T04:54:27;100008.70;;;10.98;71.88
12536;BME280;6334;48.696;2.114;2023-04-27T04:56:57;100013.77;;;11.06;71.69
12536;BME280;6334;48.696;2.114;2023-04-27T04:59:27;100019.27;;;11.03;71.61
12536;BME280;6334;48.696;2.114;2023-04-27T05:01:58;100015.33;;;10.69;72.62
12536;BME280;6334;48.696;2.114;2023-04-27T05:04:30;100015.49;;;10.99;71.23
12536;BME280;6334;48.696;2.114;2023-04-27T05:07:03;100014.15;;;11.25;69.90
12536;BME280;6334;48.696;2.114;2023-04-27T05:09:34;100013.00;;;10.82;71.31
12536;BME280;6334;48.696;2.114;2023-04-27T05:12:08;100018.28;;;11.15;70.01
12536;BME280;6334;48.696;2.114;2023-04-27T05:14:37;100020.75;;;11.22;69.92
12536;BME280;6334;48.696;2.114;2023-04-27T05:17:07;100024.08;;;11.23;70.78
12536;BME280;6334;48.696;2.114;2023-04-27T05:19:41;100018.53;;;10.78;73.13
12536;BME280;6334;48.696;2.114;2023-04-27T05:22:11;100013.44;;;10.79;72.12
12536;BME280;6334;48.696;2.114;2023-04-27T05:24:42;100015.73;;;11.13;72.06
12536;BME280;6334;48.696;2.114;2023-04-27T05:27:13;100013.02;;;11.22;70.89
12536;BME280;6334;48.696;2.114;2023-04-27T05:29:44;100007.65;;;11.18;70.72
12536;BME280;6334;48.696;2.114;2023-04-27T05:32:15;100006.13;;;11.04;70.95
12536;BME280;6334;48.696;2.114;2023-04-27T05:34:47;100007.73;;;11.24;70.42
12536;BME280;6334;48.696;2.114;2023-04-27T05:37:17;100004.00;;;11.30;69.97
12536;BME280;6334;48.696;2.114;2023-04-27T05:39:48;100005.63;;;11.32;70.63
12536;BME280;6334;48.696;2.114;2023-04-27T05:42:18;100001.23;;;11.41;70.11
12536;BME280;6334;48.696;2.114;2023-04-27T05:44:48;100002.24;;;11.35;70.37
12536;BME280;6334;48.696;2.114;2023-04-27T05:47:19;99995.25;;;11.02;71.56
12536;BME280;6334;48.696;2.114;2023-04-27T05:49:50;99998.89;;;11.57;68.37
12536;BME280;6334;48.696;2.114;2023-04-27T05:52:22;100000.95;;;11.68;71.34
12536;BME280;6334;48.696;2.114;2023-04-27T05:54:51;100002.30;;;11.52;69.91
12536;BME280;6334;48.696;2.114;2023-04-27T05:57:21;100006.16;;;11.71;69.10
12536;BME280;6334;48.696;2.114;2023-04-27T05:59:55;100013.20;;;11.47;70.07
12536;BME280;6334;48.696;2.114;2023-04-27T06:02:26;100011.67;;;11.66;68.83
12536;BME280;6334;48.696;2.114;2023-04-27T06:04:57;100008.70;;;11.88;68.60
12536;BME280;6334;48.696;2.114;2023-04-27T06:07:28;100007.78;;;11.74;68.62
12536;BME280;6334;48.696;2.114;2023-04-27T06:09:58;100003.42;;;11.74;68.49
12536;BME280;6334;48.696;2.114;2023-04-27T06:12:29;100000.63;;;11.52;69.44
12536;BME280;6334;48.696;2.114;2023-04-27T06:15:00;100002.28;;;11.63;68.98
12536;BME280;6334;48.696;2.114;2023-04-27T06:17:30;100000.73;;;11.91;67.57
12536;BME280;6334;48.696;2.114;2023-04-27T06:20:00;100001.31;;;11.86;67.30
12536;BME280;6334;48.696;2.114;2023-04-27T06:22:30;100003.40;;;12.11;65.77
12536;BME280;6334;48.696;2.114;2023-04-27T06:25:04;100003.05;;;11.67;67.63
12536;BME280;6334;48.696;2.114;2023-04-27T06:27:35;100001.91;;;11.81;67.38
12536;BME280;6334;48.696;2.114;2023-04-27T06:30:06;99999.76;;;11.96;67.50
12536;BME280;6334;48.696;2.114;2023-04-27T06:32:37;100003.77;;;11.83;66.06
12536;BME280;6334;48.696;2.114;2023-04-27T06:35:07;100004.59;;;11.99;67.68
12536;BME280;6334;48.696;2.114;2023-04-27T06:37:36;100006.06;;;12.02;68.47
12536;BME280;6334;48.696;2.114;2023-04-27T06:40:07;100001.19;;;11.99;69.71
12536;BME280;6334;48.696;2.114;2023-04-27T06:42:37;100001.20;;;11.87;68.51
12536;BME280;6334;48.696;2.114;2023-04-27T06:45:07;100004.88;;;11.83;68.76
12536;BME280;6334;48.696;2.114;2023-04-27T06:47:36;99999.95;;;11.83;68.58
12536;BME280;6334;48.696;2.114;2023-04-27T06:50:06;99994.19;;;12.46;66.96
12536;BME280;6334;48.696;2.114;2023-04-27T06:52:36;99990.34;;;12.43;67.34
12536;BME280;6334;48.696;2.114;2023-04-27T06:55:06;99995.10;;;12.66;65.89
12536;BME280;6334;48.696;2.114;2023-04-27T06:57:39;99995.23;;;12.69;64.34
12536;BME280;6334;48.696;2.114;2023-04-27T07:00:10;99998.39;;;12.68;65.73
12536;BME280;6334;48.696;2.114;2023-04-27T07:02:40;99999.13;;;12.70;66.60
12536;BME280;6334;48.696;2.114;2023-04-27T07:05:11;99996.16;;;12.47;63.36
12536;BME280;6334;48.696;2.114;2023-04-27T07:07:44;100000.27;;;12.87;63.17
12536;BME280;6334;48.696;2.114;2023-04-27T07:10:15;100002.08;;;12.99;64.52
12536;BME280;6334;48.696;2.114;2023-04-27T07:12:45;100001.19;;;13.27;62.19
12536;BME280;6334;48.696;2.114;2023-04-27T07:15:14;100005.34;;;12.98;61.67
12536;BME280;6334;48.696;2.114;2023-04-27T07:17:45;100002.16;;;13.25;61.99
12536;BME280;6334;48.696;2.114;2023-04-27T07:20:15;100003.11;;;12.86;63.25
12536;BME280;6334;48.696;2.114;2023-04-27T07:22:45;100000.95;;;12.78;60.26
12536;BME280;6334;48.696;2.114;2023-04-27T07:25:14;100005.93;;;13.06;61.47
12536;BME280;6334;48.696;2.114;2023-04-27T07:27:44;100009.69;;;13.10;60.87
12536;BME280;6334;48.696;2.114;2023-04-27T07:30:14;100015.26;;;13.31;59.38
12536;BME280;6334;48.696;2.114;2023-04-27T07:32:44;100016.22;;;13.28;60.41
12536;BME280;6334;48.696;2.114;2023-04-27T07:35:13;100011.19;;;13.54;59.32
12536;BME280;6334;48.696;2.114;2023-04-27T07:37:44;100019.30;;;13.43;60.58
12536;BME280;6334;48.696;2.114;2023-04-27T07:40:14;100011.31;;;13.63;60.13
12536;BME280;6334;48.696;2.114;2023-04-27T07:42:44;100012.76;;;13.75;60.08
12536;BME280;6334;48.696;2.114;2023-04-27T07:45:13;100020.15;;;13.60;60.48
12536;BME280;6334;48.696;2.114;2023-04-27T07:47:44;100011.56;;;13.59;59.97
12536;BME280;6334;48.696;2.114;2023-04-27T07:50:21;100006.73;;;13.82;59.50
12536;BME280;6334;48.696;2.114;2023-04-27T07:55:26;100003.81;;;13.88;59.42
12536;BME280;6334;48.696;2.114;2023-04-27T07:57:56;100006.82;;;14.14;58.36
12536;BME280;6334;48.696;2.114;2023-04-27T08:00:25;100005.92;;;14.09;58.53
12536;BME280;6334;48.696;2.114;2023-04-27T08:02:56;100002.14;;;13.91;59.41
12536;BME280;6334;48.696;2.114;2023-04-27T08:05:26;100010.19;;;14.16;56.39
12536;BME280;6334;48.696;2.114;2023-04-27T08:07:56;100009.90;;;14.23;58.28
12536;BME280;6334;48.696;2.114;2023-04-27T08:10:27;100011.34;;;13.95;57.52
12536;BME280;6334;48.696;2.114;2023-04-27T08:12:57;100005.35;;;14.15;57.98
12536;BME280;6334;48.696;2.114;2023-04-27T08:15:27;99998.86;;;14.17;58.41
12536;BME280;6334;48.696;2.114;2023-04-27T08:17:58;99997.94;;;14.47;56.74
12536;BME280;6334;48.696;2.114;2023-04-27T08:20:27;99989.38;;;14.02;55.22
12536;BME280;6334;48.696;2.114;2023-04-27T08:22:57;99988.30;;;14.38;55.39
12536;BME280;6334;48.696;2.114;2023-04-27T08:25:27;99993.61;;;14.46;58.25
12536;BME280;6334;48.696;2.114;2023-04-27T08:27:57;99993.03;;;14.59;57.27
12536;BME280;6334;48.696;2.114;2023-04-27T08:30:27;99998.66;;;15.11;57.27
12536;BME280;6334;48.696;2.114;2023-04-27T08:32:56;99994.57;;;14.71;56.86
12536;BME280;6334;48.696;2.114;2023-04-27T08:35:26;99994.95;;;14.85;56.09
12536;BME280;6334;48.696;2.114;2023-04-27T08:37:55;99991.93;;;15.15;56.71
12536;BME280;6334;48.696;2.114;2023-04-27T08:40:25;99992.22;;;15.31;57.25
12536;BME280;6334;48.696;2.114;2023-04-27T08:42:58;99994.19;;;15.47;55.18
12536;BME280;6334;48.696;2.114;2023-04-27T08:45:27;99994.39;;;15.51;57.17
12536;BME280;6334;48.696;2.114;2023-04-27T08:47:56;99989.70;;;15.42;57.68
12536;BME280;6334;48.696;2.114;2023-04-27T08:50:26;99987.42;;;14.84;54.90
12536;BME280;6334;48.696;2.114;2023-04-27T08:52:56;99989.86;;;15.53;55.06
12536;BME280;6334;48.696;2.114;2023-04-27T08:55:25;99992.91;;;15.42;53.53
12536;BME280;6334;48.696;2.114;2023-04-27T08:57:55;99990.72;;;15.52;55.39
12536;BME280;6334;48.696;2.114;2023-04-27T09:00:24;99986.09;;;15.37;54.64
12536;BME280;6334;48.696;2.114;2023-04-27T09:02:54;99981.83;;;15.08;55.56
12536;BME280;6334;48.696;2.114;2023-04-27T09:05:24;99990.46;;;15.53;56.12
12536;BME280;6334;48.696;2.114;2023-04-27T09:08:00;99991.34;;;15.53;55.56
12536;BME280;6334;48.696;2.114;2023-04-27T09:10:28;99992.50;;;15.69;55.81
12536;BME280;6334;48.696;2.114;2023-04-27T09:12:58;99989.97;;;15.72;54.30
12536;BME280;6334;48.696;2.114;2023-04-27T09:15:28;99993.33;;;15.47;53.09
12536;BME280;6334;48.696;2.114;2023-04-27T09:17:57;99985.75;;;15.83;55.20
12536;BME280;6334;48.696;2.114;2023-04-27T09:20:28;99982.99;;;15.70;54.74
12536;BME280;6334;48.696;2.114;2023-04-27T09:22:57;99989.77;;;15.63;52.79
12536;BME280;6334;48.696;2.114;2023-04-27T09:25:29;99994.00;;;15.49;54.83
12536;BME280;6334;48.696;2.114;2023-04-27T09:27:58;99988.37;;;15.81;54.17
12536;BME280;6334;48.696;2.114;2023-04-27T09:30:28;99989.14;;;16.09;55.11
12536;BME280;6334;48.696;2.114;2023-04-27T09:32:59;99984.08;;;16.08;54.60
12536;BME280;6334;48.696;2.114;2023-04-27T09:35:29;99987.55;;;15.90;54.06
12536;BME280;6334;48.696;2.114;2023-04-27T09:37:57;99989.50;;;15.82;53.17
12536;BME280;6334;48.696;2.114;2023-04-27T09:40:27;99985.16;;;16.27;54.59
12536;BME280;6334;48.696;2.114;2023-04-27T09:42:57;99978.22;;;16.12;53.33
12536;BME280;6334;48.696;2.114;2023-04-27T09:45:26;99977.71;;;16.00;51.27
12536;BME280;6334;48.696;2.114;2023-04-27T09:47:56;99975.14;;;16.18;52.69
12536;BME280;6334;48.696;2.114;2023-04-27T09:50:26;99978.27;;;16.27;54.69
12536;BME280;6334;48.696;2.114;2023-04-27T09:52:55;99975.88;;;16.24;52.66
12536;BME280;6334;48.696;2.114;2023-04-27T09:55:33;99969.82;;;16.38;53.93
12536;BME280;6334;48.696;2.114;2023-04-27T10:04:01;99974.78;;;16.49;55.28
12536;BME280;6334;48.696;2.114;2023-04-27T10:09:02;99971.39;;;16.22;53.94
12536;BME280;6334;48.696;2.114;2023-04-27T10:11:38;99964.52;;;16.65;53.43
12536;BME280;6334;48.696;2.114;2023-04-27T10:14:08;99962.19;;;16.53;54.13
12536;BME280;6334;48.696;2.114;2023-04-27T10:16:55;99959.33;;;16.56;54.24
12536;BME280;6334;48.696;2.114;2023-04-27T10:19:24;99958.22;;;16.67;53.18
12536;BME280;6334;48.696;2.114;2023-04-27T10:21:58;99952.90;;;16.41;52.89
12536;BME280;6334;48.696;2.114;2023-04-27T10:24:30;99953.36;;;16.60;52.61
12536;BME280;6334;48.696;2.114;2023-04-27T10:27:03;99951.36;;;16.56;54.82
12536;BME280;6334;48.696;2.114;2023-04-27T10:29:38;99952.28;;;16.60;52.84
12536;BME280;6334;48.696;2.114;2023-04-27T10:32:17;99955.94;;;17.16;54.05
12536;BME280;6334;48.696;2.114;2023-04-27T10:34:42;99959.03;;;17.20;52.26
12536;BME280;6334;48.696;2.114;2023-04-27T10:37:12;99945.32;;;16.70;51.54
12536;BME280;6334;48.696;2.114;2023-04-27T10:39:42;99950.52;;;17.02;52.69
12536;BME280;6334;48.696;2.114;2023-04-27T10:42:11;99953.98;;;16.59;51.76
12536;BME280;6334;48.696;2.114;2023-04-27T10:44:41;99955.16;;;16.88;52.47
12536;BME280;6334;48.696;2.114;2023-04-27T10:47:15;99956.06;;;17.33;51.94
12536;BME280;6334;48.696;2.114;2023-04-27T10:49:45;99950.89;;;17.34;53.01
12536;BME280;6334;48.696;2.114;2023-04-27T10:52:14;99952.27;;;17.51;51.00
12536;BME280;6334;48.696;2.114;2023-04-27T10:54:46;99945.23;;;17.18;50.86
12536;BME280;6334;48.696;2.114;2023-04-27T10:57:16;99946.88;;;17.32;52.55
12536;BME280;6334;48.696;2.114;2023-04-27T10:59:52;99945.23;;;17.51;52.11
12536;BME280;6334;48.696;2.114;2023-04-27T11:02:26;99947.69;;;17.74;53.28
12536;BME280;6334;48.696;2.114;2023-04-27T11:04:55;99935.42;;;18.06;50.65
12536;BME280;6334;48.696;2.114;2023-04-27T11:07:25;99934.86;;;17.97;51.11
12536;BME280;6334;48.696;2.114;2023-04-27T11:09:54;99931.56;;;17.97;52.42
12536;BME280;6334;48.696;2.114;2023-04-27T11:12:24;99929.09;;;17.62;49.60
12536;BME280;6334;48.696;2.114;2023-04-27T11:14:57;99932.94;;;17.73;49.78
12536;BME280;6334;48.696;2.114;2023-04-27T11:17:28;99922.88;;;17.54;51.03
12536;BME280;6334;48.696;2.114;2023-04-27T11:19:58;99921.20;;;17.48;50.73
12536;BME280;6334;48.696;2.114;2023-04-27T11:22:27;99915.97;;;17.39;49.04
12536;BME280;6334;48.696;2.114;2023-04-27T11:24:57;99916.94;;;17.77;49.07
12536;BME280;6334;48.696;2.114;2023-04-27T11:27:35;99911.17;;;18.26;48.87
12536;BME280;6334;48.696;2.114;2023-04-27T11:29:56;99903.98;;;18.45;50.49
12536;BME280;6334;48.696;2.114;2023-04-27T11:32:26;99897.33;;;18.49;49.76
12536;BME280;6334;48.696;2.114;2023-04-27T11:34:55;99889.42;;;18.32;49.39
12536;BME280;6334;48.696;2.114;2023-04-27T11:37:26;99891.66;;;18.07;47.97
12536;BME280;6334;48.696;2.114;2023-04-27T11:39:54;99888.36;;;17.98;48.94
12536;BME280;6334;48.696;2.114;2023-04-27T11:42:25;99874.05;;;18.24;48.09
12536;BME280;6334;48.696;2.114;2023-04-27T11:44:59;99874.41;;;18.42;49.31
12536;BME280;6334;48.696;2.114;2023-04-27T11:47:29;99875.33;;;17.86;50.46
12536;BME280;6334;48.696;2.114;2023-04-27T11:49:58;99879.72;;;18.18;50.13
12536;BME280;6334;48.696;2.114;2023-04-27T11:52:39;99865.20;;;18.15;48.71
12536;BME280;6334;48.696;2.114;2023-04-27T11:55:08;99873.19;;;18.17;48.88
12536;BME280;6334;48.696;2.114;2023-04-27T11:57:38;99874.34;;;18.08;48.38
12536;BME280;6334;48.696;2.114;2023-04-27T12:00:07;99875.48;;;18.18;50.01
12536;BME280;6334;48.696;2.114;2023-04-27T12:02:37;99876.53;;;18.20;48.70
12536;BME280;6334;48.696;2.114;2023-04-27T12:05:07;99869.19;;;18.05;50.65
12536;BME280;6334;48.696;2.114;2023-04-27T12:07:36;99864.77;;;18.35;49.59
12536;BME280;6334;48.696;2.114;2023-04-27T12:10:06;99860.02;;;18.42;46.80
12536;BME280;6334;48.696;2.114;2023-04-27T12:12:35;99859.17;;;18.42;47.79
12536;BME280;6334;48.696;2.114;2023-04-27T12:15:05;99855.23;;;18.53;49.43
12536;BME280;6334;48.696;2.114;2023-04-27T12:17:35;99849.91;;;18.46;49.84
12536;BME280;6334;48.696;2.114;2023-04-27T12:20:05;99853.45;;;18.72;49.52
12536;BME280;6334;48.696;2.114;2023-04-27T12:22:35;99852.38;;;18.46;48.83
12536;BME280;6334;48.696;2.114;2023-04-27T12:25:04;99848.12;;;18.35;49.10
12536;BME280;6334;48.696;2.114;2023-04-27T12:27:34;99853.31;;;18.69;48.73
12536;BME280;6334;48.696;2.114;2023-04-27T12:30:05;99849.27;;;18.60;49.82
12536;BME280;6334;48.696;2.114;2023-04-27T12:32:34;99841.52;;;18.28;50.54
12536;BME280;6334;48.696;2.114;2023-04-27T12:35:04;99847.63;;;18.54;50.74
12536;BME280;6334;48.696;2.114;2023-04-27T12:37:34;99842.19;;;18.36;49.50
12536;BME280;6334;48.696;2.114;2023-04-27T12:40:03;99844.45;;;17.94;50.74
12536;BME280;6334;48.696;2.114;2023-04-27T12:42:33;99839.59;;;18.10;49.19
12536;BME280;6334;48.696;2.114;2023-04-27T12:45:02;99837.20;;;18.03;50.56
12536;BME280;6334;48.696;2.114;2023-04-27T12:47:33;99830.19;;;17.99;51.77
12536;BME280;6334;48.696;2.114;2023-04-27T12:50:02;99825.47;;;18.16;51.26
12536;BME280;6334;48.696;2.114;2023-04-27T12:52:32;99816.22;;;18.06;51.53
12536;BME280;6334;48.696;2.114;2023-04-27T12:55:02;99808.30;;;18.25;51.02
12536;BME280;6334;48.696;2.114;2023-04-27T12:57:31;99810.94;;;18.05;51.89
12536;BME280;6334;48.696;2.114;2023-04-27T13:00:01;99819.02;;;17.86;51.65
12536;BME280;6334;48.696;2.114;2023-04-27T13:02:31;99821.42;;;18.17;51.28
12536;BME280;6334;48.696;2.114;2023-04-27T13:05:01;99817.67;;;18.05;50.81
12536;BME280;6334;48.696;2.114;2023-04-27T13:07:31;99818.30;;;18.04;52.68
12536;BME280;6334;48.696;2.114;2023-04-27T13:10:01;99819.22;;;18.12;52.43
12536;BME280;6334;48.696;2.114;2023-04-27T13:12:31;99824.02;;;18.17;53.21
12536;BME280;6334;48.696;2.114;2023-04-27T13:15:00;99825.80;;;18.17;52.85
12536;BME280;6334;48.696;2.114;2023-04-27T13:17:30;99833.30;;;18.10;51.28
12536;BME280;6334;48.696;2.114;2023-04-27T13:20:00;99845.67;;;17.97;51.95
12536;BME280;6334;48.696;2.114;2023-04-27T13:22:30;99843.91;;;17.79;52.38
12536;BME280;6334;48.696;2.114;2023-04-27T13:25:00;99826.40;;;17.79;52.73
12536;BME280;6334;48.696;2.114;2023-04-27T13:27:31;99811.01;;;17.88;52.78
12536;BME280;6334;48.696;2.114;2023-04-27T13:30:01;99821.58;;;17.66;52.37
12536;BME280;6334;48.696;2.114;2023-04-27T13:32:30;99826.66;;;17.87;52.45
12536;BME280;6334;48.696;2.114;2023-04-27T13:35:00;99827.64;;;17.39;54.10
12536;BME280;6334;48.696;2.114;2023-04-27T13:37:29;99823.98;;;17.35;54.65